This is the latest recevied weather packets stored in our database for station/object W4SKW. If no packets are shown the sender has not sent any weather packets the latest 10 day(s).
| Time | Temp. | Humidity | Pressure | Rain* | Wind** | Luminosity | Snow |
|---|---|---|---|---|---|---|---|
| 1777853698 | 15° C | 74% | 1018.3 hPa | 0 mm | - | 8 W/m² | - |
| 1777853394 | 15° C | 74% | 1018.4 hPa | 0 mm | - | 9 W/m² | - |
| 1777853091 | 15.56° C | 72% | 1018.3 hPa | 0 mm | - | 12 W/m² | - |
| 1777852788 | 16.11° C | 71% | 1018.2 hPa | 0 mm | - | 14 W/m² | - |
| 1777852486 | 16.67° C | 64% | 1018.4 hPa | 0 mm | - | 19 W/m² | - |
| 1777852183 | 16.67° C | 64% | 1018.4 hPa | 0 mm | - | 19 W/m² | - |
| 1777851881 | 16.67° C | 68% | 1018.5 hPa | 0 mm | - | 21 W/m² | - |
| 1777851579 | 17.22° C | 63% | 1018.4 hPa | 0 mm | - | 23 W/m² | - |
| 1777851275 | 17.22° C | 61% | 1018.3 hPa | 0 mm | - | 25 W/m² | - |
| 1777850971 | 17.78° C | 60% | 1018.4 hPa | 0 mm | - | 27 W/m² | - |
| 1777850668 | 18.89° C | 56% | 1018.3 hPa | 0 mm | - | 36 W/m² | - |
| 1777850367 | 18.89° C | 56% | 1018.3 hPa | 0 mm | - | 36 W/m² | - |
| 1777850064 | 18.89° C | 51% | 1018.4 hPa | 0 mm | - | 40 W/m² | - |
| 1777849760 | 18.89° C | 54% | 1018.1 hPa | 0 mm | - | 48 W/m² | - |
| 1777849456 | 19.44° C | 53% | 1018.2 hPa | 0 mm | - | 43 W/m² | - |
| 1777849154 | 20.56° C | 47% | 1018.1 hPa | 0 mm | - | 49 W/m² | - |
| 1777848850 | 21.67° C | 39% | 1018.3 hPa | 0 mm | - | 133 W/m² | - |
| 1777848546 | 21.11° C | 39% | 1018.3 hPa | 0 mm | - | 147 W/m² | - |
| 1777848243 | 21.67° C | 38% | 1018.5 hPa | 0 mm | - | 158 W/m² | - |
| 1777847941 | 21.67° C | 39% | 1018.3 hPa | 0 mm | - | 186 W/m² | - |
| 1777847639 | 22.22° C | 38% | 1018.4 hPa | 0 mm | - | 194 W/m² | - |
| 1777847334 | 21.67° C | 41% | 1018.4 hPa | 0 mm | - | 205 W/m² | - |
| 1777847033 | 21.67° C | 38% | 1018.6 hPa | 0 mm | - | 220 W/m² | - |
| 1777846731 | 21.67° C | 40% | 1018.6 hPa | 0 mm | - | 236 W/m² | - |
| 1777846429 | 22.22° C | 40% | 1018.5 hPa | 0 mm | - | 267 W/m² | - |
* Rain latest hour (hover to see other rain measurements)
** Current wind speed in m/s (hover to see current wind gust speed)